Terminal Aerodrome Forecast
Issued by NWS Austin/San Antonio, TX

Home | Current Version | Previous Version | Text Only | Print | Product List | Glossary On
Versions: 1 2 3 4 5 6 7 8 9 10 11 12 13 14 15 16 17 18
944
FTUS44 KEWX 270520
TAFAUS
TAF
KAUS 270520Z 2706/2812 16011KT P6SM OVC012
     FM270800 17009KT P6SM OVC009
     FM271200 19016KT P6SM OVC012
     FM272000 19015KT P6SM SCT040 SCT250
     FM280500 17012KT P6SM BKN020=

USA.gov is the U.S. government's official web portal to all federal, state and local government web resources and services.